Fife Lake, Michigan
Current Conditions -  °F | °C
As of 3:19 PM on Thursday 18 Dec 2014 (Local Time) from KTVC Reporting Station
Scattered Clouds Scattered Clouds  
Wind Chill: 22°   Ceiling: Unl
Heat Index: 28°   Visibility: 10mi
Dew Point: 20°   Wind: 6mph
Humidity: 72%   Direction: NA
Pressure: 30.19"   Gusts: NA
Location:  44.58°N, 85.35°W
Report Text: KTVC 182019Z VRB05KT 10SM SCT018 SCT200 M02/M07 A3019 RMK AO2 T10221067
Loading
Personal Weather Stations






























Interactive Weather Map New forecast layout! Learn more

10-Day Weather Forecast

Advertisements
Track Severe Weather on mobile